Station: Noonamah  

  Atmospheric Gas Attenuation - ITU Rec 676-11   ----------------- dB/100km -----------------
Date Time Temp RH % AH g/m3 Dew Point Wind Direction Speed kph Gust kph Barometer mB Rainfall Since 9am 24GHz 47GHz 76GHz 122GHz 134GHz 241GHz
08/05 12:00 30.1 41 12.5 15.4 19 28 1011.7 0 26.9 27.1 45.9 121.1 124.2 430.8
08/05 11:50 30 41 12.44 15.3 20 28 1011.8 0 26.8 27.0 45.8 120.7 123.6 428.8
08/05 11:40 30.2 41 12.57 15.8 19 28 1012 0 27.0 27.2 46.1 121.7 124.9 433.3
08/05 11:30 29.5 41 12.1 15.2 13 22 1012.2 0 26.1 26.7 44.8 118.1 120.4 417.3
08/05 11:20 29.3 43 12.56 15.7 11 19 1012.4 0 27.1 27.4 46.6 123.0 126.3 437.9
08/05 11:10 28.9 44 12.57 15.7 15 17 1012.5 0 27.1 27.6 46.9 123.7 127.0 440.5
08/05 11:00 28.1 44 12.03 14.7 17 26 1012.7 0 26.0 27.0 45.4 119.6 121.7 421.8
08/05 10:50 28.2 44 12.1 15.1 19 22 1012.8 0 26.2 27.1 45.6 120.1 122.4 424.3
08/05 10:40 28 46 12.51 15.6 13 15 1012.8 0 27.0 27.8 47.2 124.5 127.8 443.0
08/05 10:30 27.8 47 12.64 15.5 15 22 1012.9 0 27.3 28.0 47.9 126.2 129.7 449.8
08/05 10:20 26.9 46 11.77 14.6 17 19 1013 0 25.6 27.0 45.1 118.8 120.4 417.1
08/05 10:10 27.2 47 12.23 14.9 13 19 1013 0 26.5 27.6 46.7 123.0 125.6 435.4
08/05 10:00 26.5 48 12.02 14.6 15 22 1013.1 0 26.1 27.5 46.3 121.9 124.1 430.1
08/05 09:50 26 48 11.69 14.4 17 20 1013.1 0 25.5 27.1 45.3 119.3 120.8 418.4
08/05 09:40 26.1 48 11.75 14.5 19 24 1013 0 25.6 27.2 45.5 119.8 121.4 420.4
08/05 09:30 25.4 51 12.01 14.5 17 26 1013.1 0 26.2 27.8 46.9 123.5 125.8 435.6
08/05 09:20 24.8 51 11.61 14.2 15 19 1013.1 0 25.4 27.4 45.7 120.3 121.7 421.2
08/05 09:10 24.7 49 11.09 13.5 15 17 1013 0 24.3 26.6 43.8 115.2 115.3 399.0
08/05 09:00 24.5 50 11.19 13.4 19 30 1012.9 0 24.5 26.8 44.2 116.5 116.8 404.4
08/05 08:50 24.4 52 11.57 13.9 19 22 1012.9 0 25.3 27.4 45.8 120.5 121.8 421.5
08/05 08:40 23.9 54 11.68 14 17 19 1012.9 0 25.6 27.8 46.5 122.4 123.9 429.1
08/05 08:30 23.5 54 11.42 13.7 15 24 1012.8 0 25.0 27.5 45.7 120.3 121.2 419.6
08/05 08:20 23.3 56 11.71 14 11 13 1012.8 0 25.7 28.0 46.9 123.6 125.3 433.7
08/05 08:10 22.8 58 11.78 14.1 9 11 1012.7 0 25.8 28.2 47.5 125.1 127.0 439.6
08/05 08:00 22.4 60 11.91 14.3 7 11 1012.7 0 26.1 28.6 48.3 127.2 129.3 447.8
08/05 07:50 21.7 62 11.83 14.3 6 7 1012.6 0 26.0 28.7 48.4 127.4 129.4 448.0
08/05 07:40 21.3 62 11.56 13.9 9 9 1012.5 0 25.5 28.4 47.5 125.2 126.5 437.8
08/05 07:30 20.9 64 11.65 13.8 6 9 1012.4 0 25.7 28.6 48.1 126.7 128.4 444.2
08/05 07:20 20.6 65 11.63 13.8 7 9 1012.3 0 25.7 28.7 48.2 127.0 128.6 444.9
08/05 07:10 20.3 65 11.43 13.5 7 9 1012.2 0 25.3 28.5 47.6 125.3 126.4 437.3
08/05 07:00 20.4 64 11.32 13.4 7 11 1012.2 0 25.0 28.3 47.1 124.0 124.8 431.6
08/05 06:50 20.5 63 11.21 13.4 11 13 1012.1 0 24.8 28.0 46.6 122.6 123.2 426.0
08/05 06:40 20.6 63 11.27 13.3 7 9 1011.9 0 24.9 28.1 46.7 123.1 123.8 428.1
08/05 06:30 20.7 63 11.34 13.4 9 15 1011.9 0 25.0 28.2 47.0 123.7 124.5 430.8
08/05 06:20 20.9 61 11.11 13.3 11 15 1011.8 0 24.6 27.7 45.9 120.9 121.2 419.1
08/05 06:10 20.9 61 11.11 13.3 11 15 1011.8 0 24.6 27.7 45.9 120.9 121.2 419.1
08/05 06:00 21 61 11.17 13.2 9 15 1011.6 0 24.7 27.8 46.1 121.4 121.8 421.3
08/05 05:50 21.2 60 11.12 13.3 9 13 1011.5 0 24.6 27.7 45.8 120.5 120.8 417.9
08/05 05:40 21.2 60 11.12 13.3 11 13 1011.5 0 24.6 27.7 45.8 120.5 120.8 417.9
08/05 05:30 21.2 61 11.3 13.4 11 15 1011.5 0 24.9 27.9 46.5 122.4 123.2 426.1
08/05 05:20 21.4 60 11.25 13.3 9 13 1011.4 0 24.8 27.8 46.2 121.6 122.2 422.7
08/05 05:10 21.5 60 11.31 13.4 9 13 1011.4 0 24.9 27.9 46.3 122.1 122.8 424.9
08/05 05:00 21.5 60 11.31 13.4 13 20 1011.4 0 24.9 27.9 46.3 122.1 122.8 424.9
08/05 04:50 21.3 60 11.18 13.4 13 19 1011.3 0 24.7 27.7 45.9 121.0 121.4 420.0
08/05 04:40 21.2 62 11.49 13.6 13 15 1011.2 0 25.3 28.2 47.2 124.4 125.6 434.7
08/05 04:30 21.1 62 11.42 13.5 9 17 1011.2 0 25.2 28.2 47.0 123.8 124.9 432.0
08/05 04:20 21 63 11.54 13.7 9 13 1011.2 0 25.5 28.4 47.6 125.3 126.6 438.1
08/05 04:10 21 63 11.54 13.7 9 13 1011.3 0 25.5 28.4 47.6 125.3 126.6 438.2
08/05 04:00 21.1 63 11.61 13.8 7 13 1011.3 0 25.6 28.5 47.8 125.9 127.4 440.8
08/05 03:50 21.3 62 11.56 13.7 7 9 1011.3 0 25.5 28.3 47.5 125.0 126.4 437.4
08/05 03:40 21.4 60 11.25 13.5 7 9 1011.3 0 24.8 27.8 46.2 121.6 122.2 422.7
08/05 03:30 21.5 61 11.5 13.7 9 13 1011.3 0 25.3 28.2 47.1 124.1 125.3 433.5
08/05 03:20 21.7 60 11.44 13.6 9 13 1011.3 0 25.2 28.0 46.7 123.1 124.2 429.7
08/05 03:10 21.8 60 11.51 13.7 11 13 1011.4 0 25.3 28.1 47.0 123.7 124.9 432.4
08/05 03:00 21.7 61 11.64 13.9 9 15 1011.5 0 25.6 28.3 47.5 125.3 126.8 438.9
08/05 02:50 21.7 60 11.44 13.8 9 11 1011.5 0 25.2 28.0 46.8 123.1 124.2 429.8
08/05 02:40 21.6 60 11.38 13.7 9 11 1011.7 0 25.1 28.0 46.6 122.7 123.6 427.6
08/05 02:30 21.5 62 11.69 13.9 9 13 1011.7 0 25.7 28.5 47.9 126.1 127.8 442.4
08/05 02:20 21.5 62 11.69 13.9 9 11 1011.8 0 25.7 28.5 47.9 126.1 127.8 442.4
08/05 02:10 21.6 62 11.76 14 7 9 1011.9 0 25.9 28.6 48.1 126.7 128.6 445.1
08/05 02:00 21.7 62 11.83 14.1 7 11 1012 0 26.0 28.7 48.3 127.3 129.4 447.8
08/05 01:50 21.8 60 11.51 13.9 7 9 1012 0 25.3 28.1 47.0 123.8 125.0 432.6
08/05 01:40 21.9 61 11.77 14 9 11 1012.1 0 25.9 28.5 48.0 126.4 128.3 444.0
08/05 01:30 21.9 61 11.77 14 7 11 1012.2 0 25.9 28.5 48.0 126.4 128.3 444.0
08/05 01:20 22.1 61 11.91 14.2 9 11 1012.3 0 26.2 28.7 48.4 127.6 129.8 449.3
08/05 01:10 22.1 61 11.91 14.2 9 13 1012.3 0 26.2 28.7 48.4 127.6 129.8 449.3
08/05 01:00 21.7 63 12.02 14.4 7 9 1012.4 0 26.4 29.0 49.1 129.4 131.9 456.8
08/05 00:50 21.4 64 12 14.3 6 7 1012.4 0 26.4 29.0 49.2 129.7 132.2 457.6
08/05 00:40 21.2 64 11.86 14.3 6 7 1012.5 0 26.1 28.9 48.8 128.5 130.7 452.3
08/05 00:30 21 67 12.27 14.6 6 9 1012.6 0 27.0 29.6 50.6 133.4 136.5 472.7
08/05 00:20 21 67 12.27 14.6 6 7 1012.6 0 27.0 29.6 50.6 133.4 136.5 472.7
08/05 00:10 21 66 12.09 14.4 6 6 1012.7 0 26.6 29.3 49.9 131.4 134.1 464.2
08/05 00:00 21.2 67 12.42 14.8 6 9 1012.7 0 27.3 29.8 51.1 134.7 138.2 478.6
07/05 23:50 21 69 12.64 15.1 6 6 1012.8 0 27.8 30.3 52.1 137.5 141.6 490.3
07/05 23:40 20.7 70 12.6 15 7 9 1012.8 0 27.7 30.3 52.2 137.6 141.6 490.3
07/05 23:30 20.1 77 13.38 15.9 4 7 1012.9 0 29.4 31.9 55.9 147.5 153.6 532.3
07/05 23:20 19.9 84 14.43 17.1 4 7 1013 0 31.7 33.8 60.7 160.3 169.2 586.6
07/05 23:10 19.8 88 15.03 17.7 4 6 1012.9 0 33.0 34.9 63.5 167.7 178.3 618.3
07/05 23:00 19.9 87 14.95 17.7 2 4 1012.9 0 32.8 34.7 63.0 166.5 176.9 613.4
07/05 22:50 20.1 85 14.77 17.5 0 2 1013 0 32.4 34.3 62.1 163.9 173.8 602.5
07/05 22:40 20.2 84 14.69 17.4 2 4 1012.9 0 32.2 34.1 61.6 162.7 172.3 597.6
07/05 22:30 20.4 82 14.5 17.2 2 4 1012.9 0 31.8 33.7 60.6 160.0 169.1 586.3
07/05 22:20 20.6 80 14.32 17 4 4 1012.9 0 31.4 33.3 59.7 157.5 166.0 575.7
07/05 22:10 20.8 83 15.03 17.8 6 6 1013 0 32.9 34.5 62.7 165.5 176.0 610.3
07/05 22:00 20.8 77 13.94 16.6 4 6 1012.9 0 30.6 32.6 57.8 152.6 160.2 555.1
07/05 21:50 20.9 76 13.84 16.5 2 4 1013 0 30.3 32.4 57.3 151.3 158.5 549.5
07/05 21:40 21 83 15.2 18 4 6 1013 0 33.2 34.7 63.3 167.1 178.0 617.4
07/05 21:30 21.2 84 15.57 18.4 4 6 1012.9 0 34.0 35.3 64.8 171.1 183.0 634.9
07/05 21:20 21.4 80 15 17.8 4 4 1012.9 0 32.8 34.2 62.0 163.9 174.1 604.0
07/05 21:10 21.2 73 13.53 16.3 4 6 1012.8 0 29.7 31.7 55.8 147.1 153.5 532.0
07/05 21:00 21.2 86 15.94 18.8 2 6 1012.7 0 34.8 36.0 66.5 175.6 188.5 654.0
07/05 20:50 21.2 86 15.94 18.7 0 0 1012.6 0 34.8 36.0 66.5 175.6 188.5 654.0
07/05 20:40 21.6 82 15.55 18.5 0 0 1012.5 0 33.9 35.1 64.3 169.9 181.7 630.3
07/05 20:30 21.9 83 16.02 18.9 0 0 1012.5 0 34.9 35.8 66.2 175.0 187.9 652.1
07/05 20:20 22 81 15.72 18.7 0 0 1012.3 0 34.3 35.2 64.8 171.1 183.2 635.7
07/05 20:10 22.1 80 15.62 18.6 0 0 1012.2 0 34.0 35.0 64.2 169.6 181.5 629.7
07/05 20:00 22.2 80 15.71 18.6 0 0 1012.1 0 34.2 35.1 64.5 170.5 182.6 633.4
07/05 19:50 22.5 78 15.58 18.6 0 0 1012.1 0 33.9 34.8 63.7 168.3 179.9 624.3
07/05 19:40 22.9 77 15.74 18.6 0 0 1012 0 34.2 34.9 64.1 169.3 181.3 629.1
07/05 19:30 23.2 74 15.38 18.3 0 0 1012 0 33.4 34.1 62.2 164.4 175.4 608.5

Last Refresh: 08-May-2026 12:07:29

Bureau of Meteorology